Terminal Aerodrome Forecast
Issued by NWS

Home | Current Version | Previous Version | Text Only | Print | Product List | Glossary On
Versions: 1 2 3 4 5 6 7 8 9 10 11 12 13 14 15 16 17 18 19
959
FTUS44 KCRP 142331
TAFALI
TAF
KALI 142331Z 1500/1524 13015G26KT P6SM FEW040 SCT250
     FM150100 15013KT P6SM FEW030 SCT250
     FM150800 14005KT 2SM BR BKN005
     FM151000 15004KT 1/4SM FG OVC002
     FM151530 19006KT 1SM BR BKN004
     FM151615 24007KT P6SM SCT030
     FM151900 36009G16KT P6SM SKC=

USA.gov is the U.S. government's official web portal to all federal, state and local government web resources and services.